Time;durP1;ratioP1;P1;durP2;ratioP2;P2;SDS_P1;SDS_P2;PMS_P1;PMS_P2;Temp;Humidity;BMP_temperature;BMP_pressure;BME280_temperature;BME280_humidity;BME280_pressure;Samples;Min_cycle;Max_cycle;Signal;HPM_P1;HPM_P2
2023/04/11 00:02:11;;;;;;;0.10;0.10;;;;;;;;;;5015246;28;20045;-78
2023/04/11 00:04:37;;;;;;;0.10;0.10;;;;;;;;;;5014916;28;20038;-80
2023/04/11 00:07:03;;;;;;;0.10;0.10;;;;;;;;;;4997453;28;20045;-80
2023/04/11 00:09:29;;;;;;;0.10;0.10;;;;;;;;;;5014977;28;20038;-75
2023/04/11 00:11:55;;;;;;;0.15;0.15;;;;;;;;;;5015005;28;20045;-79
2023/04/11 00:14:21;;;;;;;4.38;1.27;;;;;;;;;;5014841;28;20030;-77
2023/04/11 00:16:48;;;;;;;0.70;0.68;;;;;;;;;;5014872;28;20045;-81
2023/04/11 00:19:14;;;;;;;0.40;0.40;;;;;;;;;;5015014;28;20029;-78
2023/04/11 00:21:39;;;;;;;0.38;0.38;;;;;;;;;;5014830;28;20026;-78
2023/04/11 00:24:06;;;;;;;0.20;0.20;;;;;;;;;;5014719;28;20049;-78
2023/04/11 00:26:32;;;;;;;1.13;0.95;;;;;;;;;;4997342;28;20033;-77
2023/04/11 00:28:57;;;;;;;0.17;0.17;;;;;;;;;;5015025;28;20041;-79
2023/04/11 00:31:22;;;;;;;0.10;0.10;;;;;;;;;;4997124;28;20084;-78
2023/04/11 00:33:48;;;;;;;0.20;0.20;;;;;;;;;;5014875;28;20070;-79
2023/04/11 00:36:13;;;;;;;0.20;0.20;;;;;;;;;;5014606;28;20041;-79
2023/04/11 00:38:39;;;;;;;9.90;1.25;;;;;;;;;;4996811;28;20073;-76
2023/04/11 00:41:04;;;;;;;0.20;0.20;;;;;;;;;;5014300;28;20025;-77
2023/04/11 00:43:30;;;;;;;0.20;0.20;;;;;;;;;;5014365;28;20569;-76
2023/04/11 00:45:56;;;;;;;0.20;0.20;;;;;;;;;;5014448;28;20038;-77
2023/04/11 00:48:27;;;;;;;0.50;0.50;;;;;;;;;;5013749;28;20096;-76
2023/04/11 00:50:53;;;;;;;0.45;0.45;;;;;;;;;;5014385;28;20030;-76
2023/04/11 00:53:18;;;;;;;0.10;0.10;;;;;;;;;;5014052;28;20079;-77
2023/04/11 00:55:44;;;;;;;0.20;0.20;;;;;;;;;;4996439;28;20030;-78
2023/04/11 00:58:10;;;;;;;0.38;0.38;;;;;;;;;;5014170;28;20045;-76
2023/04/11 01:00:37;;;;;;;0.10;0.10;;;;;;;;;;5014114;28;20040;-77
2023/04/11 01:03:02;;;;;;;0.10;0.10;;;;;;;;;;4980220;28;20038;-77
2023/04/11 01:05:29;;;;;;;0.10;0.10;;;;;;;;;;5013969;28;20374;-76
2023/04/11 01:07:54;;;;;;;0.35;0.35;;;;;;;;;;5013822;28;20053;-76
2023/04/11 01:10:21;;;;;;;0.95;0.95;;;;;;;;;;4996146;28;20029;-76
2023/04/11 01:12:47;;;;;;;0.20;0.20;;;;;;;;;;4996485;28;20038;-76
2023/04/11 01:15:12;;;;;;;3.22;3.00;;;;;;;;;;5013924;28;20029;-77
2023/04/11 01:17:38;;;;;;;0.25;0.25;;;;;;;;;;5013926;28;20532;-78
2023/04/11 01:20:06;;;;;;;0.20;0.20;;;;;;;;;;5013629;28;20042;-76
2023/04/11 01:22:32;;;;;;;0.20;0.20;;;;;;;;;;5013657;28;20056;-78
2023/04/11 01:25:01;;;;;;;0.10;0.10;;;;;;;;;;4996016;28;20358;-79
2023/04/11 01:27:28;;;;;;;0.55;0.55;;;;;;;;;;4996231;28;20030;-79
2023/04/11 01:29:53;;;;;;;0.80;0.80;;;;;;;;;;4996451;28;20056;-77
2023/04/11 01:32:18;;;;;;;1.25;1.15;;;;;;;;;;5013590;28;20042;-80
2023/04/11 01:34:45;;;;;;;0.30;0.30;;;;;;;;;;5013623;28;20109;-82
2023/04/11 01:37:11;;;;;;;0.20;0.20;;;;;;;;;;5013484;28;20030;-79
2023/04/11 01:39:37;;;;;;;0.32;0.32;;;;;;;;;;4995825;28;20168;-80
2023/04/11 01:42:03;;;;;;;0.38;0.38;;;;;;;;;;4995961;28;20041;-79
2023/04/11 01:44:29;;;;;;;2.20;1.45;;;;;;;;;;5013523;28;20029;-77
2023/04/11 01:46:55;;;;;;;6.55;3.55;;;;;;;;;;5013552;28;20034;-78
2023/04/11 01:49:22;;;;;;;0.10;0.10;;;;;;;;;;4995772;28;20088;-78
2023/04/11 01:51:48;;;;;;;0.10;0.10;;;;;;;;;;4995719;28;20049;-79
2023/04/11 01:54:13;;;;;;;0.20;0.20;;;;;;;;;;4995772;28;20037;-86
2023/04/11 01:56:38;;;;;;;0.40;0.40;;;;;;;;;;5013126;28;20449;-80
2023/04/11 01:59:05;;;;;;;0.10;0.10;;;;;;;;;;4996303;28;20477;-81
2023/04/11 02:01:30;;;;;;;0.10;0.10;;;;;;;;;;4999586;28;20084;-82
2023/04/11 02:03:56;;;;;;;0.10;0.10;;;;;;;;;;4984508;28;20092;-80
2023/04/11 02:06:22;;;;;;;0.10;0.10;;;;;;;;;;4974282;28;20042;-82
2023/04/11 02:08:47;;;;;;;0.10;0.10;;;;;;;;;;5000206;28;20066;-81
2023/04/11 02:11:12;;;;;;;0.10;0.10;;;;;;;;;;4986953;28;20129;-81
2023/04/11 02:13:38;;;;;;;0.38;0.38;;;;;;;;;;5000463;28;20034;-80
2023/04/11 02:16:07;;;;;;;0.10;0.10;;;;;;;;;;5017944;28;20113;-81
2023/04/11 02:18:33;;;;;;;0.17;0.17;;;;;;;;;;5000910;28;20042;-81
2023/04/11 02:21:00;;;;;;;0.47;0.47;;;;;;;;;;5019675;28;20030;-79
2023/04/11 02:23:26;;;;;;;0.10;0.10;;;;;;;;;;4999123;28;20448;-79
2023/04/11 02:25:51;;;;;;;0.10;0.10;;;;;;;;;;4983232;28;20030;-79
2023/04/11 02:28:17;;;;;;;0.20;0.20;;;;;;;;;;4999577;28;20074;-80
2023/04/11 02:30:43;;;;;;;0.10;0.10;;;;;;;;;;4999561;28;20477;-79
2023/04/11 02:33:09;;;;;;;0.10;0.10;;;;;;;;;;5016846;28;20544;-81
2023/04/11 02:35:35;;;;;;;0.20;0.20;;;;;;;;;;4998652;28;20057;-81
2023/04/11 02:38:00;;;;;;;0.17;0.17;;;;;;;;;;4999132;28;20363;-81
2023/04/11 02:40:26;;;;;;;0.45;0.45;;;;;;;;;;5000329;28;20037;-81
2023/04/11 02:42:51;;;;;;;0.10;0.10;;;;;;;;;;5018345;28;20042;-80
2023/04/11 02:45:17;;;;;;;0.10;0.10;;;;;;;;;;5018024;28;20387;-81
2023/04/11 02:47:43;;;;;;;0.10;0.10;;;;;;;;;;4999545;28;20053;-82
2023/04/11 02:50:10;;;;;;;0.10;0.10;;;;;;;;;;4999707;28;20049;-82
2023/04/11 02:52:41;;;;;;;0.10;0.10;;;;;;;;;;4983504;28;20030;-82
2023/04/11 02:55:09;;;;;;;0.10;0.10;;;;;;;;;;5000364;28;20034;-81
2023/04/11 02:57:34;;;;;;;0.10;0.10;;;;;;;;;;4999341;28;20037;-85
2023/04/11 03:00:00;;;;;;;0.20;0.20;;;;;;;;;;5016356;28;20018;-80
2023/04/11 03:02:36;;;;;;;1.27;0.82;;;;;;;;;;4995484;28;20133;-81
2023/04/11 03:05:02;;;;;;;0.10;0.10;;;;;;;;;;4994028;28;20498;-81
2023/04/11 03:07:30;;;;;;;0.63;0.60;;;;;;;;;;4994763;28;20034;-80
2023/04/11 03:09:56;;;;;;;0.10;0.10;;;;;;;;;;4995074;28;20037;-81
2023/04/11 03:12:21;;;;;;;0.10;0.10;;;;;;;;;;4993913;28;20038;-83
2023/04/11 03:14:54;;;;;;;0.10;0.10;;;;;;;;;;4994947;28;20088;-82
2023/04/11 03:17:19;;;;;;;0.15;0.15;;;;;;;;;;5011907;28;20045;-83
2023/04/11 03:19:45;;;;;;;0.30;0.30;;;;;;;;;;4994967;28;20088;-82
2023/04/11 03:22:11;;;;;;;0.10;0.10;;;;;;;;;;4994144;28;20473;-82
2023/04/11 03:24:39;;;;;;;0.15;0.15;;;;;;;;;;4994963;28;20050;-82
2023/04/11 03:27:06;;;;;;;0.22;0.22;;;;;;;;;;4978653;28;20049;-82
2023/04/11 03:29:32;;;;;;;0.10;0.10;;;;;;;;;;4994651;28;20045;-80
2023/04/11 03:32:06;;;;;;;0.30;0.30;;;;;;;;;;4994895;28;20041;-81
2023/04/11 03:34:34;;;;;;;0.10;0.10;;;;;;;;;;4994571;28;20116;-81
2023/04/11 03:37:01;;;;;;;0.15;0.15;;;;;;;;;;4993172;28;20486;-80
2023/04/11 03:39:27;;;;;;;0.10;0.10;;;;;;;;;;4994659;28;20053;-80
2023/04/11 03:41:56;;;;;;;0.10;0.10;;;;;;;;;;4994787;28;20026;-80
2023/04/11 03:44:24;;;;;;;0.10;0.10;;;;;;;;;;5011997;28;20120;-82
2023/04/11 03:46:49;;;;;;;0.40;0.40;;;;;;;;;;4993895;28;20120;-82
2023/04/11 03:49:15;;;;;;;0.10;0.10;;;;;;;;;;4994418;28;20037;-80
2023/04/11 03:51:43;;;;;;;0.10;0.10;;;;;;;;;;4994753;28;20508;-81
2023/04/11 03:54:09;;;;;;;0.47;0.47;;;;;;;;;;4993599;28;20037;-80
2023/04/11 03:56:38;;;;;;;1.25;1.15;;;;;;;;;;4994049;28;20029;-81
2023/04/11 03:59:05;;;;;;;0.38;0.38;;;;;;;;;;4993462;28;20042;-81
2023/04/11 04:01:43;;;;;;;0.30;0.30;;;;;;;;;;4992329;28;20057;-81
2023/04/11 04:04:08;;;;;;;2.53;2.42;;;;;;;;;;4993815;28;20073;-81
2023/04/11 04:06:37;;;;;;;0.10;0.10;;;;;;;;;;4992476;28;20048;-80
2023/04/11 04:09:04;;;;;;;0.20;0.20;;;;;;;;;;4993718;28;20030;-81
2023/04/11 04:11:41;;;;;;;0.13;0.13;;;;;;;;;;4992783;28;20048;-79
2023/04/11 04:14:07;;;;;;;0.10;0.10;;;;;;;;;;4993090;28;20041;-80
2023/04/11 04:16:34;;;;;;;0.40;0.40;;;;;;;;;;4993918;28;20036;-79
2023/04/11 04:19:03;;;;;;;0.20;0.20;;;;;;;;;;4993556;28;20140;-77
2023/04/11 04:21:31;;;;;;;0.15;0.15;;;;;;;;;;4993375;28;20040;-81
2023/04/11 04:24:02;;;;;;;0.10;0.10;;;;;;;;;;4990947;28;20062;-80
2023/04/11 04:26:48;;;;;;;0.10;0.10;;;;;;;;;;4993938;28;20054;-81
2023/04/11 04:29:36;;;;;;;0.13;0.13;;;;;;;;;;4992860;28;20038;-82
2023/04/11 04:32:09;;;;;;;0.32;0.32;;;;;;;;;;4992613;28;20064;-81
2023/04/11 04:34:39;;;;;;;0.10;0.10;;;;;;;;;;4992631;28;20968;-81
2023/04/11 04:37:05;;;;;;;0.10;0.10;;;;;;;;;;4992258;28;20508;-80
2023/04/11 04:39:40;;;;;;;0.10;0.10;;;;;;;;;;4993118;28;20076;-82
2023/04/11 04:42:11;;;;;;;0.10;0.10;;;;;;;;;;4992878;28;20041;-80
2023/04/11 04:44:38;;;;;;;0.20;0.20;;;;;;;;;;4992689;28;20493;-81
2023/04/11 04:47:12;;;;;;;0.10;0.10;;;;;;;;;;4991412;28;20072;-80
2023/04/11 04:49:38;;;;;;;0.30;0.30;;;;;;;;;;4992398;28;20446;-80
2023/04/11 04:52:03;;;;;;;0.08;0.08;;;;;;;;;;5011292;28;20021;-80
2023/04/11 04:54:30;;;;;;;0.13;0.13;;;;;;;;;;5009935;28;20044;-78
2023/04/11 04:56:55;;;;;;;0.10;0.10;;;;;;;;;;4988322;28;20052;-78
2023/04/11 04:59:22;;;;;;;0.10;0.10;;;;;;;;;;4992504;28;20094;-77
2023/04/11 05:01:54;;;;;;;0.10;0.10;;;;;;;;;;4991075;28;20497;-81
2023/04/11 05:04:25;;;;;;;0.10;0.10;;;;;;;;;;4991941;28;20045;-78
2023/04/11 05:06:54;;;;;;;0.10;0.10;;;;;;;;;;4992417;28;20092;-80
2023/04/11 05:09:20;;;;;;;0.10;0.10;;;;;;;;;;4992234;28;20527;-79
2023/04/11 05:11:49;;;;;;;0.10;0.10;;;;;;;;;;4990071;28;20085;-79
2023/04/11 05:14:15;;;;;;;0.10;0.10;;;;;;;;;;4991996;28;20045;-80
2023/04/11 05:16:41;;;;;;;0.10;0.10;;;;;;;;;;4992259;28;20037;-80
2023/04/11 05:19:06;;;;;;;0.10;0.10;;;;;;;;;;4982884;28;20030;-83
2023/04/11 05:21:35;;;;;;;0.32;0.32;;;;;;;;;;4998346;28;20037;-82
2023/04/11 05:24:01;;;;;;;0.32;0.32;;;;;;;;;;4976619;28;20409;-82
2023/04/11 05:26:32;;;;;;;1.05;0.43;;;;;;;;;;4992644;28;20042;-83
2023/04/11 05:28:58;;;;;;;0.10;0.10;;;;;;;;;;4992648;28;20034;-83
2023/04/11 05:31:26;;;;;;;0.28;0.28;;;;;;;;;;4992410;28;20493;-82
2023/04/11 05:33:52;;;;;;;0.30;0.30;;;;;;;;;;4991701;28;20041;-77
2023/04/11 05:36:18;;;;;;;0.10;0.10;;;;;;;;;;4986243;28;20026;-78
2023/04/11 05:38:44;;;;;;;0.63;0.63;;;;;;;;;;5007163;28;20401;-78
2023/04/11 05:41:09;;;;;;;0.10;0.10;;;;;;;;;;4992140;28;20033;-77
2023/04/11 05:43:35;;;;;;;0.10;0.10;;;;;;;;;;5008392;28;20045;-77
2023/04/11 05:46:01;;;;;;;0.10;0.10;;;;;;;;;;4992170;28;20497;-79
2023/04/11 05:48:27;;;;;;;0.13;0.13;;;;;;;;;;4990968;28;20041;-78
2023/04/11 05:50:52;;;;;;;0.10;0.10;;;;;;;;;;4992266;28;20046;-78
2023/04/11 05:53:18;;;;;;;0.10;0.10;;;;;;;;;;5009374;28;20493;-79
2023/04/11 05:55:43;;;;;;;0.10;0.10;;;;;;;;;;5007358;28;20520;-76
2023/04/11 05:58:09;;;;;;;0.40;0.35;;;;;;;;;;5009674;28;20177;-75
2023/04/11 06:00:37;;;;;;;0.38;0.38;;;;;;;;;;5008198;28;20043;-77
2023/04/11 06:03:03;;;;;;;0.10;0.10;;;;;;;;;;5003342;28;20144;-79
2023/04/11 06:05:30;;;;;;;1.33;1.33;;;;;;;;;;5001048;28;20027;-76
2023/04/11 06:07:56;;;;;;;2.63;1.45;;;;;;;;;;4998635;28;20035;-77
2023/04/11 06:10:21;;;;;;;2.20;2.10;;;;;;;;;;4989828;28;20035;-77
2023/04/11 06:12:47;;;;;;;0.30;0.30;;;;;;;;;;4989831;28;20041;-84
2023/04/11 06:15:12;;;;;;;0.73;0.73;;;;;;;;;;4999386;28;20046;-78
2023/04/11 06:17:38;;;;;;;0.10;0.10;;;;;;;;;;4991015;28;20482;-76
2023/04/11 06:20:04;;;;;;;0.10;0.10;;;;;;;;;;4989894;28;20501;-78
2023/04/11 06:22:30;;;;;;;0.40;0.28;;;;;;;;;;4989650;28;20034;-77
2023/04/11 06:24:56;;;;;;;0.10;0.10;;;;;;;;;;4989752;28;20060;-75
2023/04/11 06:27:21;;;;;;;0.50;0.50;;;;;;;;;;4989606;28;20505;-75
2023/04/11 06:29:47;;;;;;;0.20;0.20;;;;;;;;;;4989661;28;20558;-76
2023/04/11 06:32:12;;;;;;;0.50;0.50;;;;;;;;;;4989564;28;20601;-75
2023/04/11 06:34:38;;;;;;;0.20;0.20;;;;;;;;;;4997886;28;20041;-75
2023/04/11 06:37:05;;;;;;;0.20;0.20;;;;;;;;;;4998023;28;20082;-76
2023/04/11 06:39:30;;;;;;;0.10;0.10;;;;;;;;;;4989684;28;20069;-78
2023/04/11 06:41:55;;;;;;;1.20;1.20;;;;;;;;;;4989653;28;20042;-77
2023/04/11 06:44:24;;;;;;;0.20;0.20;;;;;;;;;;4972066;28;20046;-77
2023/04/11 06:46:50;;;;;;;0.20;0.20;;;;;;;;;;4990791;28;20577;-76
2023/04/11 06:49:17;;;;;;;0.20;0.20;;;;;;;;;;4992678;28;20097;-77
2023/04/11 06:51:45;;;;;;;0.20;0.20;;;;;;;;;;4993161;28;20043;-79
2023/04/11 06:54:11;;;;;;;0.57;0.55;;;;;;;;;;4993202;28;20520;-76
2023/04/11 06:56:37;;;;;;;0.20;0.20;;;;;;;;;;4993243;28;20034;-76
2023/04/11 06:59:03;;;;;;;3.17;2.97;;;;;;;;;;4992695;28;20065;-76
2023/04/11 07:01:34;;;;;;;0.40;0.40;;;;;;;;;;4992995;28;20082;-77
2023/04/11 07:04:00;;;;;;;0.40;0.40;;;;;;;;;;5004404;28;20042;-76
2023/04/11 07:06:26;;;;;;;0.63;0.52;;;;;;;;;;4994258;28;20528;-76
2023/04/11 07:08:51;;;;;;;0.10;0.10;;;;;;;;;;4992774;28;20042;-78
2023/04/11 07:11:16;;;;;;;1.40;1.00;;;;;;;;;;4992625;28;20026;-76
2023/04/11 07:13:42;;;;;;;0.15;0.15;;;;;;;;;;4990208;28;20057;-77
2023/04/11 07:16:07;;;;;;;0.90;0.90;;;;;;;;;;5003251;28;20045;-76
2023/04/11 07:18:33;;;;;;;0.52;0.52;;;;;;;;;;5001078;28;20037;-76
2023/04/11 07:20:59;;;;;;;1.02;0.75;;;;;;;;;;5003631;28;20064;-79
2023/04/11 07:23:24;;;;;;;0.10;0.10;;;;;;;;;;5001650;28;20045;-76
2023/04/11 07:25:49;;;;;;;0.20;0.20;;;;;;;;;;5000846;28;20271;-79
2023/04/11 07:28:15;;;;;;;2.72;2.53;;;;;;;;;;5002855;28;20377;-79
2023/04/11 07:30:41;;;;;;;0.10;0.10;;;;;;;;;;5001032;28;20030;-79
2023/04/11 07:33:06;;;;;;;5.88;1.85;;;;;;;;;;5001224;28;20108;-79
2023/04/11 07:35:33;;;;;;;3.17;1.80;;;;;;;;;;5002606;28;20184;-79
2023/04/11 07:38:00;;;;;;;0.88;0.85;;;;;;;;;;5000756;28;20047;-78
2023/04/11 07:40:26;;;;;;;4.22;2.70;;;;;;;;;;5001457;28;20087;-76
2023/04/11 07:42:51;;;;;;;0.52;0.52;;;;;;;;;;5002319;28;20709;-79
2023/04/11 07:45:17;;;;;;;6.05;2.97;;;;;;;;;;4999358;28;20037;-77
2023/04/11 07:47:42;;;;;;;0.22;0.22;;;;;;;;;;4992232;28;20038;-77
2023/04/11 07:50:08;;;;;;;0.68;0.68;;;;;;;;;;4992885;28;20042;-76
2023/04/11 07:52:34;;;;;;;1.95;1.45;;;;;;;;;;5004207;28;20100;-77
2023/04/11 07:54:59;;;;;;;0.20;0.20;;;;;;;;;;4992167;28;20034;-77
2023/04/11 07:57:25;;;;;;;0.10;0.10;;;;;;;;;;5005201;28;20045;-75
2023/04/11 07:59:50;;;;;;;2.65;1.85;;;;;;;;;;5001641;28;20042;-76
2023/04/11 08:02:15;;;;;;;0.63;0.60;;;;;;;;;;4991820;28;20041;-77
2023/04/11 08:04:41;;;;;;;0.63;0.57;;;;;;;;;;4991856;28;20076;-80
2023/04/11 08:07:06;;;;;;;0.15;0.15;;;;;;;;;;4991414;28;20026;-78
2023/04/11 08:09:33;;;;;;;3.60;0.82;;;;;;;;;;4991746;28;20109;-75
2023/04/11 08:11:58;;;;;;;3.50;1.92;;;;;;;;;;4991406;28;20038;-76
2023/04/11 08:14:24;;;;;;;1.55;1.45;;;;;;;;;;4973950;28;20044;-79
2023/04/11 08:16:49;;;;;;;3.58;2.42;;;;;;;;;;4991323;28;20119;-80
2023/04/11 08:19:16;;;;;;;1.25;0.90;;;;;;;;;;4990975;28;20042;-77
2023/04/11 08:21:41;;;;;;;0.32;0.32;;;;;;;;;;4991509;28;20042;-76
2023/04/11 08:24:07;;;;;;;3.13;2.63;;;;;;;;;;4991141;28;20041;-77
2023/04/11 08:26:32;;;;;;;4.55;2.97;;;;;;;;;;4991458;28;20042;-81
2023/04/11 08:28:58;;;;;;;1.65;1.00;;;;;;;;;;4991137;28;20109;-78
2023/04/11 08:31:23;;;;;;;0.10;0.10;;;;;;;;;;4973638;28;20422;-76
2023/04/11 08:33:49;;;;;;;1.15;1.15;;;;;;;;;;4991323;28;20038;-77
2023/04/11 08:36:14;;;;;;;0.10;0.10;;;;;;;;;;4973886;28;20522;-79
2023/04/11 08:38:40;;;;;;;1.55;1.45;;;;;;;;;;4974054;28;20112;-81
2023/04/11 08:41:06;;;;;;;0.32;0.25;;;;;;;;;;4991154;28;20045;-80
2023/04/11 08:43:39;;;;;;;0.55;0.55;;;;;;;;;;4990850;28;20122;-82
2023/04/11 08:46:04;;;;;;;2.55;1.55;;;;;;;;;;4990870;28;20038;-78
2023/04/11 08:48:31;;;;;;;2.35;1.63;;;;;;;;;;4990896;28;20080;-77
2023/04/11 08:50:56;;;;;;;5.68;2.92;;;;;;;;;;4991106;28;20022;-77
2023/04/11 08:53:23;;;;;;;1.13;0.88;;;;;;;;;;5007912;28;20943;-80
2023/04/11 08:55:49;;;;;;;2.53;1.45;;;;;;;;;;5010798;28;20049;-87
2023/04/11 08:58:15;;;;;;;0.30;0.30;;;;;;;;;;5010547;28;20041;-81
2023/04/11 09:00:41;;;;;;;3.72;2.35;;;;;;;;;;5010001;28;20445;-76
2023/04/11 09:03:07;;;;;;;0.52;0.35;;;;;;;;;;5010306;28;20065;-75
2023/04/11 09:05:35;;;;;;;2.58;1.55;;;;;;;;;;5010389;28;20026;-76
2023/04/11 09:08:01;;;;;;;1.83;1.23;;;;;;;;;;5010321;28;20029;-76
2023/04/11 09:10:26;;;;;;;1.50;0.85;;;;;;;;;;5010143;28;20430;-76
2023/04/11 09:12:55;;;;;;;1.55;0.85;;;;;;;;;;5010615;28;20121;-77
2023/04/11 09:15:28;;;;;;;3.47;1.88;;;;;;;;;;5009779;28;20053;-78
2023/04/11 09:17:54;;;;;;;5.13;1.88;;;;;;;;;;5010063;28;20038;-76
2023/04/11 09:20:24;;;;;;;5.13;1.63;;;;;;;;;;5003329;28;20100;-76
2023/04/11 09:22:50;;;;;;;0.30;0.30;;;;;;;;;;5003164;28;20432;-76
2023/04/11 09:25:16;;;;;;;2.35;1.90;;;;;;;;;;5006023;28;20088;-76
2023/04/11 09:27:42;;;;;;;0.55;0.55;;;;;;;;;;5010181;28;20033;-76
2023/04/11 09:30:18;;;;;;;0.10;0.10;;;;;;;;;;5009329;28;20030;-76
2023/04/11 09:32:44;;;;;;;4.47;2.42;;;;;;;;;;5009014;28;20041;-76
2023/04/11 09:35:11;;;;;;;1.95;1.10;;;;;;;;;;4984534;28;20045;-75
2023/04/11 09:37:56;;;;;;;5.57;4.40;;;;;;;;;;4993111;28;20030;-76
2023/04/11 09:40:22;;;;;;;0.13;0.13;;;;;;;;;;5008382;28;20034;-77
2023/04/11 09:42:54;;;;;;;0.20;0.20;;;;;;;;;;5009932;28;20045;-77
2023/04/11 09:45:20;;;;;;;0.10;0.10;;;;;;;;;;5008715;28;20426;-76
2023/04/11 09:47:47;;;;;;;0.60;0.60;;;;;;;;;;4990899;28;20029;-70
2023/04/11 09:50:12;;;;;;;0.43;0.40;;;;;;;;;;5008675;28;20042;-72
2023/04/11 09:52:41;;;;;;;1.65;1.10;;;;;;;;;;4992142;28;20084;-71
2023/04/11 09:55:12;;;;;;;0.35;0.30;;;;;;;;;;4987351;28;20441;-70
2023/04/11 09:57:39;;;;;;;0.20;0.20;;;;;;;;;;5007010;28;20125;-71
2023/04/11 10:00:15;;;;;;;2.58;1.40;;;;;;;;;;5000205;28;20034;-70
2023/04/11 10:02:40;;;;;;;1.08;0.50;;;;;;;;;;4975982;28;20040;-71
2023/04/11 10:05:07;;;;;;;0.38;0.38;;;;;;;;;;5006052;28;20037;-71
2023/04/11 10:07:33;;;;;;;1.45;1.05;;;;;;;;;;4999159;28;20497;-70
2023/04/11 10:09:58;;;;;;;0.85;0.40;;;;;;;;;;4966178;28;20096;-70
2023/04/11 10:12:30;;;;;;;0.30;0.30;;;;;;;;;;5000292;28;20034;-70
2023/04/11 10:14:56;;;;;;;0.20;0.20;;;;;;;;;;4996391;28;20496;-70
2023/04/11 10:17:21;;;;;;;0.17;0.17;;;;;;;;;;5006973;28;20125;-70
2023/04/11 10:19:48;;;;;;;2.35;1.15;;;;;;;;;;5006954;28;20061;-70
2023/04/11 10:22:32;;;;;;;0.60;0.60;;;;;;;;;;5009080;28;20482;-71
2023/04/11 10:25:16;;;;;;;0.55;0.50;;;;;;;;;;5010970;28;20088;-69
2023/04/11 10:27:48;;;;;;;0.73;0.73;;;;;;;;;;5010978;28;20056;-73
2023/04/11 10:30:14;;;;;;;0.40;0.40;;;;;;;;;;5011057;28;20492;-70
2023/04/11 10:32:40;;;;;;;0.32;0.32;;;;;;;;;;5009132;28;20062;-70
2023/04/11 10:35:15;;;;;;;1.92;1.10;;;;;;;;;;5010802;28;20030;-70
2023/04/11 10:37:41;;;;;;;1.40;0.73;;;;;;;;;;4993241;28;20436;-70
2023/04/11 10:40:10;;;;;;;0.28;0.28;;;;;;;;;;5006570;28;20038;-70
2023/04/11 10:42:37;;;;;;;0.20;0.20;;;;;;;;;;4980114;28;20038;-71
2023/04/11 10:45:23;;;;;;;0.20;0.20;;;;;;;;;;5001333;28;20053;-70
2023/04/11 10:47:57;;;;;;;0.63;0.55;;;;;;;;;;4999719;28;20036;-70
2023/04/11 10:50:22;;;;;;;1.55;0.68;;;;;;;;;;4990558;28;20437;-72
2023/04/11 10:52:48;;;;;;;0.35;0.35;;;;;;;;;;5003498;28;20033;-71
2023/04/11 10:55:17;;;;;;;1.95;1.20;;;;;;;;;;4990561;28;20042;-71
2023/04/11 10:58:01;;;;;;;1.25;0.70;;;;;;;;;;4974359;28;20460;-71
2023/04/11 11:00:27;;;;;;;2.10;1.08;;;;;;;;;;4999630;28;20180;-71
2023/04/11 11:02:52;;;;;;;2.15;1.52;;;;;;;;;;4993887;28;20639;-72
2023/04/11 11:05:19;;;;;;;1.45;0.80;;;;;;;;;;4999480;28;20169;-70
2023/04/11 11:07:45;;;;;;;1.95;1.25;;;;;;;;;;4973191;28;20386;-71
2023/04/11 11:10:10;;;;;;;2.80;1.77;;;;;;;;;;4990843;28;20046;-69
2023/04/11 11:12:36;;;;;;;1.25;1.00;;;;;;;;;;4990950;28;20102;-70
2023/04/11 11:15:11;;;;;;;1.63;1.08;;;;;;;;;;4990239;28;20038;-70
2023/04/11 11:17:37;;;;;;;2.08;1.35;;;;;;;;;;4990713;28;20062;-71
2023/04/11 11:20:08;;;;;;;1.30;0.98;;;;;;;;;;4973211;28;20128;-71
2023/04/11 11:22:34;;;;;;;2.92;1.70;;;;;;;;;;4973099;28;20418;-71
2023/04/11 11:25:06;;;;;;;7.63;1.90;;;;;;;;;;4990240;28;20049;-71
2023/04/11 11:27:31;;;;;;;2.83;1.27;;;;;;;;;;4990210;28;20758;-71
2023/04/11 11:30:08;;;;;;;1.70;1.17;;;;;;;;;;4989969;28;20121;-70
2023/04/11 11:32:34;;;;;;;2.45;1.52;;;;;;;;;;4972201;28;20034;-69
2023/04/11 11:35:11;;;;;;;2.95;1.30;;;;;;;;;;4989983;28;20030;-71
2023/04/11 11:37:36;;;;;;;1.30;0.82;;;;;;;;;;4972421;28;20512;-70
2023/04/11 11:40:08;;;;;;;2.25;1.35;;;;;;;;;;4991321;28;20045;-72
2023/04/11 11:42:35;;;;;;;2.67;1.42;;;;;;;;;;5008100;28;20838;-71
2023/04/11 11:45:33;;;;;;;1.23;0.85;;;;;;;;;;4989376;28;20033;-72
2023/04/11 11:47:58;;;;;;;1.38;1.27;;;;;;;;;;4931462;28;20046;-71
2023/04/11 11:50:28;;;;;;;0.43;0.38;;;;;;;;;;5007109;28;20042;-72
2023/04/11 11:52:53;;;;;;;;;;;;;;;;;;4991118;28;20537;-70
2023/04/11 11:55:18;;;;;;;2.55;1.40;;;;;;;;;;5007456;28;19920;-71
2023/04/11 11:57:48;;;;;;;3.33;2.25;;;;;;;;;;5009213;28;20029;-70
2023/04/11 12:00:14;;;;;;;1.83;1.13;;;;;;;;;;4987112;28;20084;-70
2023/04/11 12:02:43;;;;;;;2.80;1.55;;;;;;;;;;4990702;28;20041;-70
2023/04/11 12:05:11;;;;;;;3.10;1.60;;;;;;;;;;5009085;28;20037;-69
2023/04/11 12:07:37;;;;;;;2.60;1.58;;;;;;;;;;5009122;28;20034;-73
2023/04/11 12:10:07;;;;;;;0.80;0.60;;;;;;;;;;5009093;28;20048;-71
2023/04/11 12:12:40;;;;;;;4.30;1.17;;;;;;;;;;5008983;28;20046;-71
2023/04/11 12:15:13;;;;;;;2.15;1.40;;;;;;;;;;4991601;28;20038;-70
2023/04/11 12:17:39;;;;;;;1.77;1.02;;;;;;;;;;4991889;28;20473;-71
2023/04/11 12:20:09;;;;;;;0.90;0.68;;;;;;;;;;5009217;28;20022;-70
2023/04/11 12:22:37;;;;;;;3.10;1.23;;;;;;;;;;5009377;28;20045;-70
2023/04/11 12:25:10;;;;;;;2.15;1.40;;;;;;;;;;5008829;28;20088;-71
2023/04/11 12:27:36;;;;;;;1.23;0.80;;;;;;;;;;4991162;28;20037;-70
2023/04/11 12:30:03;;;;;;;1.35;0.98;;;;;;;;;;5008870;28;20669;-70
2023/04/11 12:32:28;;;;;;;1.45;1.10;;;;;;;;;;4992012;28;20030;-70
2023/04/11 12:34:54;;;;;;;2.85;1.63;;;;;;;;;;5011005;28;20084;-70
2023/04/11 12:37:20;;;;;;;3.33;0.40;;;;;;;;;;4992986;28;20656;-70
2023/04/11 12:39:45;;;;;;;1.98;1.25;;;;;;;;;;5010763;28;20033;-70
2023/04/11 12:42:11;;;;;;;4.22;2.10;;;;;;;;;;5010471;28;20091;-70
2023/04/11 12:44:36;;;;;;;1.90;1.25;;;;;;;;;;5009951;28;20413;-70
2023/04/11 12:47:02;;;;;;;2.70;1.60;;;;;;;;;;4992779;28;20030;-72
2023/04/11 12:49:27;;;;;;;1.50;1.05;;;;;;;;;;5010534;28;20037;-70
2023/04/11 12:51:53;;;;;;;2.45;1.58;;;;;;;;;;5010619;28;20022;-70
2023/04/11 12:54:18;;;;;;;3.25;1.48;;;;;;;;;;5010370;28;20038;-70
2023/04/11 12:56:44;;;;;;;0.57;0.55;;;;;;;;;;5010614;28;20030;-71
2023/04/11 12:59:09;;;;;;;0.20;0.20;;;;;;;;;;5009948;28;20110;-70
2023/04/11 13:01:35;;;;;;;1.48;0.90;;;;;;;;;;5010303;28;20034;-70
2023/04/11 13:04:01;;;;;;;7.97;1.60;;;;;;;;;;5010297;28;20041;-70
2023/04/11 13:06:27;;;;;;;1.48;0.90;;;;;;;;;;4992789;28;20042;-70
2023/04/11 13:08:52;;;;;;;2.55;0.77;;;;;;;;;;5009728;28;20034;-72
2023/04/11 13:11:18;;;;;;;2.35;1.63;;;;;;;;;;5010367;28;20067;-70
2023/04/11 13:13:43;;;;;;;3.08;1.65;;;;;;;;;;5010172;28;20481;-70
2023/04/11 13:16:10;;;;;;;1.10;0.85;;;;;;;;;;5010435;28;20068;-70
2023/04/11 13:18:36;;;;;;;2.22;1.33;;;;;;;;;;5010697;28;20117;-70
2023/04/11 13:21:01;;;;;;;3.25;1.55;;;;;;;;;;5009835;28;20120;-73
2023/04/11 13:23:27;;;;;;;2.88;1.58;;;;;;;;;;5010400;28;20433;-70
2023/04/11 13:25:52;;;;;;;0.55;0.45;;;;;;;;;;5010022;28;20460;-70
2023/04/11 13:28:18;;;;;;;4.18;2.03;;;;;;;;;;5009798;28;20092;-70
2023/04/11 13:30:44;;;;;;;5.00;2.45;;;;;;;;;;5010226;28;20643;-71
2023/04/11 13:33:09;;;;;;;2.15;1.38;;;;;;;;;;5010126;28;20040;-70
2023/04/11 13:35:34;;;;;;;1.23;0.75;;;;;;;;;;5009810;28;20485;-70
2023/04/11 13:38:01;;;;;;;3.75;1.67;;;;;;;;;;5009941;28;20034;-70
2023/04/11 13:40:27;;;;;;;0.65;0.40;;;;;;;;;;5009923;28;20107;-70
2023/04/11 13:42:53;;;;;;;1.70;1.15;;;;;;;;;;5009481;28;20505;-70
2023/04/11 13:45:18;;;;;;;2.55;1.45;;;;;;;;;;4992054;28;20124;-73
2023/04/11 13:47:44;;;;;;;3.75;1.35;;;;;;;;;;5009833;28;20537;-70
2023/04/11 13:50:09;;;;;;;2.90;1.75;;;;;;;;;;5009679;28;20382;-70
2023/04/11 13:52:35;;;;;;;3.20;1.92;;;;;;;;;;5009750;28;20030;-70
2023/04/11 13:55:00;;;;;;;3.35;1.58;;;;;;;;;;5009641;28;20022;-73
2023/04/11 13:57:27;;;;;;;1.45;0.85;;;;;;;;;;5013534;28;20037;-70
2023/04/11 13:59:52;;;;;;;2.30;1.08;;;;;;;;;;4996165;28;20094;-70
2023/04/11 14:02:18;;;;;;;1.08;0.82;;;;;;;;;;5013525;28;20049;-71
2023/04/11 14:04:43;;;;;;;1.75;1.15;;;;;;;;;;5013647;28;20084;-71
2023/04/11 14:07:09;;;;;;;0.65;0.40;;;;;;;;;;5013357;28;20084;-73
2023/04/11 14:09:35;;;;;;;0.20;0.20;;;;;;;;;;5013741;28;20485;-71
2023/04/11 14:12:00;;;;;;;1.67;1.00;;;;;;;;;;5013400;28;20478;-71
2023/04/11 14:14:26;;;;;;;4.22;1.65;;;;;;;;;;5013502;28;20033;-70
2023/04/11 14:16:51;;;;;;;0.45;0.38;;;;;;;;;;5013420;28;20070;-70
2023/04/11 14:19:16;;;;;;;1.45;1.00;;;;;;;;;;5013522;28;20049;-71
2023/04/11 14:21:42;;;;;;;2.35;1.50;;;;;;;;;;5013203;28;20073;-74
2023/04/11 14:24:07;;;;;;;2.05;1.17;;;;;;;;;;5013787;28;20038;-71
2023/04/11 14:26:33;;;;;;;1.90;1.20;;;;;;;;;;5012958;28;20080;-70
2023/04/11 14:28:58;;;;;;;2.17;1.10;;;;;;;;;;5013454;28;20040;-71
2023/04/11 14:31:23;;;;;;;0.88;0.77;;;;;;;;;;4995686;28;20107;-70
2023/04/11 14:33:50;;;;;;;2.35;1.10;;;;;;;;;;5013462;28;20042;-70
2023/04/11 14:36:15;;;;;;;1.13;0.75;;;;;;;;;;5012571;28;20041;-70
2023/04/11 14:38:40;;;;;;;1.55;0.70;;;;;;;;;;5012744;28;20571;-70
2023/04/11 14:41:06;;;;;;;0.65;0.63;;;;;;;;;;5012971;28;20029;-70
2023/04/11 14:43:31;;;;;;;0.73;0.52;;;;;;;;;;5012766;28;20124;-71